Time;durP1;ratioP1;P1;durP2;ratioP2;P2;SDS_P1;SDS_P2;PMS_P1;PMS_P2;Temp;Humidity;BMP_temperature;BMP_pressure;BME280_temperature;BME280_humidity;BME280_pressure;Samples;Min_cycle;Max_cycle;Signal;HPM_P1;HPM_P2
2022/03/20 00:00:08;;;;;;;6.85;3.63;;;;;;;6.62;53.92;103132.00;5034590;28;20038;-68
2022/03/20 00:02:34;;;;;;;9.68;4.43;;;;;;;6.59;53.78;103126.91;5031748;28;20030;-68
2022/03/20 00:05:02;;;;;;;9.70;3.80;;;;;;;6.61;53.95;103119.53;5033469;28;20034;-68
2022/03/20 00:07:29;;;;;;;10.07;3.95;;;;;;;6.55;53.98;103116.44;5034406;28;20086;-68
2022/03/20 00:09:54;;;;;;;8.00;3.90;;;;;;;6.55;54.17;103105.66;5034076;28;20036;-69
2022/03/20 00:12:19;;;;;;;14.13;4.13;;;;;;;6.57;54.14;103110.91;5034522;28;20025;-68
2022/03/20 00:14:45;;;;;;;11.82;4.45;;;;;;;6.50;54.70;103107.06;5033944;28;20037;-68
2022/03/20 00:17:10;;;;;;;10.98;4.40;;;;;;;6.50;54.70;103105.22;5034430;28;20041;-68
2022/03/20 00:19:37;;;;;;;10.77;4.82;;;;;;;6.49;55.08;103110.75;5034071;28;20227;-69
2022/03/20 00:22:03;;;;;;;8.60;4.50;;;;;;;6.45;55.40;103104.81;5033756;28;20535;-69
2022/03/20 00:24:28;;;;;;;9.40;4.38;;;;;;;6.42;55.28;103097.03;5033792;28;20033;-68
2022/03/20 00:26:56;;;;;;;11.00;4.60;;;;;;;6.38;55.77;103092.91;5049533;28;20087;-69
2022/03/20 00:29:26;;;;;;;13.02;5.05;;;;;;;6.37;55.52;103088.53;5033470;28;20107;-68
2022/03/20 00:31:51;;;;;;;8.68;4.45;;;;;;;6.35;55.58;103087.81;5033631;28;20033;-68
2022/03/20 00:34:16;;;;;;;10.95;4.95;;;;;;;6.27;56.17;103085.84;5033781;28;20391;-68
2022/03/20 00:36:42;;;;;;;9.98;5.10;;;;;;;6.26;55.73;103069.84;5033718;28;20033;-68
2022/03/20 00:39:07;;;;;;;12.05;5.32;;;;;;;6.22;55.96;103066.63;5033443;28;20034;-68
2022/03/20 00:41:32;;;;;;;11.07;5.13;;;;;;;6.14;56.52;103063.78;5061011;28;20037;-68
2022/03/20 00:43:59;;;;;;;10.38;5.57;;;;;;;6.05;56.69;103053.88;5033421;28;20034;-68
2022/03/20 00:46:24;;;;;;;9.15;5.50;;;;;;;5.98;56.66;103050.91;5034008;28;20033;-68
2022/03/20 00:48:49;;;;;;;10.55;5.72;;;;;;;5.91;57.01;103039.81;5033064;28;20122;-68
2022/03/20 00:51:15;;;;;;;11.95;6.53;;;;;;;5.97;56.39;103044.66;5033081;28;20033;-68
2022/03/20 00:53:40;;;;;;;11.07;5.85;;;;;;;5.90;56.97;103035.41;5020442;28;20120;-69
2022/03/20 00:56:05;;;;;;;12.73;5.90;;;;;;;5.86;57.24;103039.41;5034482;28;20465;-69
2022/03/20 00:58:30;;;;;;;11.65;6.07;;;;;;;5.83;57.66;103040.53;5033436;28;20069;-68
2022/03/20 01:00:56;;;;;;;12.93;6.03;;;;;;;5.81;57.26;103041.63;5030908;28;20037;-68
2022/03/20 01:03:21;;;;;;;14.13;6.43;;;;;;;5.82;57.40;103037.97;5033651;28;20120;-68
2022/03/20 01:05:46;;;;;;;14.45;6.40;;;;;;;5.79;57.34;103028.34;5032749;28;20041;-69
2022/03/20 01:08:12;;;;;;;15.45;6.70;;;;;;;5.74;57.96;103030.59;5032809;28;20040;-69
2022/03/20 01:10:37;;;;;;;11.80;6.15;;;;;;;5.71;57.81;103025.53;5032803;28;20427;-68
2022/03/20 01:13:02;;;;;;;11.45;6.47;;;;;;;5.68;57.96;103009.69;5033355;28;20064;-68
2022/03/20 01:15:27;;;;;;;14.98;6.95;;;;;;;5.64;58.09;103019.00;5033107;28;20044;-69
2022/03/20 01:17:53;;;;;;;13.73;7.25;;;;;;;5.60;58.08;103013.06;5031902;28;20029;-68
2022/03/20 01:20:18;;;;;;;11.90;6.75;;;;;;;5.57;58.47;103017.84;5032980;28;20086;-68
2022/03/20 01:22:43;;;;;;;13.93;6.75;;;;;;;5.50;58.46;103017.56;5032664;28;20496;-68
2022/03/20 01:25:09;;;;;;;14.38;7.28;;;;;;;5.44;58.45;103013.59;5033264;28;20032;-69
2022/03/20 01:27:35;;;;;;;15.77;7.18;;;;;;;5.47;58.68;103007.09;5031529;28;20037;-69
2022/03/20 01:30:02;;;;;;;13.80;7.18;;;;;;;5.45;58.36;103004.56;5032668;28;20036;-69
2022/03/20 01:32:28;;;;;;;16.63;7.50;;;;;;;5.39;58.37;102994.38;5015275;28;20149;-69
2022/03/20 01:34:53;;;;;;;13.80;7.60;;;;;;;5.40;58.60;102996.03;5032562;28;20045;-69
2022/03/20 01:37:19;;;;;;;11.88;7.45;;;;;;;5.33;58.87;102984.19;5032805;28;20381;-68
2022/03/20 01:39:45;;;;;;;11.70;7.85;;;;;;;5.32;58.85;102977.09;5032804;28;20030;-68
2022/03/20 01:42:11;;;;;;;13.63;8.88;;;;;;;5.20;59.27;102978.22;5032816;28;20026;-68
2022/03/20 01:44:37;;;;;;;15.80;8.90;;;;;;;5.16;59.02;102966.88;5032779;28;20117;-68
2022/03/20 01:47:06;;;;;;;17.08;9.30;;;;;;;5.14;59.38;102968.84;5032431;28;20582;-68
2022/03/20 01:49:31;;;;;;;14.35;8.90;;;;;;;5.15;59.22;102965.19;5013087;28;20050;-68
2022/03/20 01:52:23;;;;;;;14.95;9.60;;;;;;;5.15;58.77;102960.66;5026538;28;20038;-68
2022/03/20 01:54:48;;;;;;;16.38;10.40;;;;;;;5.13;59.01;102951.03;5032379;28;20063;-69
2022/03/20 01:57:16;;;;;;;17.95;10.65;;;;;;;5.13;59.05;102951.91;5032459;28;20064;-68
2022/03/20 01:59:42;;;;;;;15.93;10.57;;;;;;;5.12;58.89;102949.38;5032001;28;20366;-69
2022/03/20 02:02:08;;;;;;;18.00;10.93;;;;;;;5.10;58.58;102952.19;5030286;28;20155;-68
2022/03/20 02:04:37;;;;;;;18.88;11.43;;;;;;;5.16;58.62;102940.03;5032568;28;20029;-68
2022/03/20 02:07:03;;;;;;;17.83;11.88;;;;;;;5.17;58.79;102946.28;5032249;28;20032;-68
2022/03/20 02:09:29;;;;;;;18.52;12.70;;;;;;;5.17;58.31;102938.22;5032382;28;20030;-69
2022/03/20 02:11:55;;;;;;;23.55;12.82;;;;;;;5.21;58.02;102931.56;5032420;28;20511;-68
2022/03/20 02:14:20;;;;;;;19.45;12.10;;;;;;;5.22;58.39;102927.91;5031983;28;20036;-68
2022/03/20 02:16:46;;;;;;;20.63;13.10;;;;;;;5.18;58.28;102918.41;5031534;28;20053;-68
2022/03/20 02:19:13;;;;;;;18.02;13.10;;;;;;;5.18;58.00;102923.78;5032551;28;20487;-68
2022/03/20 02:21:40;;;;;;;23.30;13.57;;;;;;;5.11;58.07;102920.81;5032505;28;20117;-69
2022/03/20 02:24:41;;;;;;;21.38;13.82;;;;;;;5.18;57.78;102918.41;5032123;28;20044;-68
2022/03/20 02:27:18;;;;;;;25.92;15.30;;;;;;;5.10;57.72;102917.31;5032132;28;20473;-68
2022/03/20 02:29:45;;;;;;;22.25;14.93;;;;;;;5.04;58.59;102915.16;5031957;28;20152;-70
2022/03/20 02:32:12;;;;;;;23.42;15.10;;;;;;;5.01;58.33;102910.06;5031794;28;20546;-68
2022/03/20 02:34:39;;;;;;;22.73;13.95;;;;;;;5.00;57.57;102907.50;5032088;28;20029;-69
2022/03/20 02:37:05;;;;;;;25.33;15.27;;;;;;;4.88;58.37;102902.25;5031817;28;20040;-69
2022/03/20 02:39:32;;;;;;;21.73;15.27;;;;;;;4.84;58.33;102895.47;5035918;28;20030;-68
2022/03/20 02:42:00;;;;;;;22.52;15.32;;;;;;;4.78;57.93;102896.00;5035708;28;20536;-68
2022/03/20 02:44:51;;;;;;;19.75;15.15;;;;;;;4.85;57.88;102899.03;5036219;28;20071;-68
2022/03/20 02:47:20;;;;;;;24.42;15.02;;;;;;;4.85;57.85;102893.66;5036116;28;20029;-68
2022/03/20 02:49:48;;;;;;;25.75;15.57;;;;;;;4.85;58.03;102889.13;5035855;28;20049;-68
2022/03/20 02:52:14;;;;;;;27.25;16.23;;;;;;;4.78;58.04;102883.44;5034872;28;20076;-68
2022/03/20 02:54:39;;;;;;;23.08;16.33;;;;;;;4.83;58.12;102880.38;5035714;28;20069;-68
2022/03/20 02:57:08;;;;;;;23.42;16.35;;;;;;;4.83;57.58;102880.38;5035489;28;20045;-68
2022/03/20 02:59:34;;;;;;;26.25;17.35;;;;;;;4.79;57.90;102871.75;5018553;28;20037;-68
2022/03/20 03:01:59;;;;;;;29.40;15.98;;;;;;;4.83;57.93;102882.19;5033222;28;20029;-68
2022/03/20 03:04:25;;;;;;;28.80;17.48;;;;;;;4.78;57.33;102871.88;5035786;28;20083;-68
2022/03/20 03:06:50;;;;;;;25.70;16.83;;;;;;;4.84;57.60;102867.81;5017920;28;20037;-68
2022/03/20 03:11:59;;;;;;;26.70;16.90;;;;;;;4.83;57.76;102868.78;5034888;28;20056;-68
2022/03/20 03:17:08;;;;;;;26.10;17.33;;;;;;;4.77;57.64;102852.25;5034914;28;20055;-68
2022/03/20 03:19:33;;;;;;;26.10;18.33;;;;;;;4.74;57.76;102849.84;5035637;28;20464;-68
2022/03/20 03:22:01;;;;;;;29.58;17.80;;;;;;;4.72;57.75;102851.81;5035226;28;20076;-68
2022/03/20 03:24:27;;;;;;;26.67;18.30;;;;;;;4.73;57.99;102850.00;5035558;28;20116;-68
2022/03/20 03:26:52;;;;;;;27.10;18.40;;;;;;;4.71;57.62;102839.41;5035203;28;20141;-68
2022/03/20 03:29:17;;;;;;;28.33;18.63;;;;;;;4.69;57.56;102841.34;5035245;28;20038;-68
2022/03/20 03:31:42;;;;;;;26.98;19.25;;;;;;;4.66;57.82;102838.09;5034651;28;20029;-68
2022/03/20 03:36:52;;;;;;;28.02;19.30;;;;;;;4.57;57.65;102821.84;5035005;28;20103;-68
2022/03/20 03:39:19;;;;;;;27.95;18.88;;;;;;;4.61;57.92;102830.47;5035016;28;20037;-68
2022/03/20 03:41:44;;;;;;;26.73;19.08;;;;;;;4.59;58.12;102821.72;5035194;28;20032;-68
2022/03/20 03:44:09;;;;;;;27.80;19.13;;;;;;;4.55;57.91;102813.09;5034499;28;20045;-68
2022/03/20 03:46:35;;;;;;;28.00;19.15;;;;;;;4.59;57.76;102816.38;5035006;28;20033;-68
2022/03/20 03:49:00;;;;;;;28.13;19.80;;;;;;;4.52;58.16;102802.66;5034129;28;20069;-69
2022/03/20 03:51:26;;;;;;;30.25;20.13;;;;;;;4.44;58.61;102794.44;5034269;28;20037;-68
2022/03/20 03:53:51;;;;;;;27.77;19.70;;;;;;;4.39;58.33;102797.53;5033082;28;20373;-68
2022/03/20 03:56:19;;;;;;;31.70;20.48;;;;;;;4.32;58.39;102801.75;5034740;28;20037;-69
2022/03/20 03:58:44;;;;;;;31.95;19.20;;;;;;;4.26;58.47;102796.94;5034449;28;20373;-68
2022/03/20 04:01:09;;;;;;;29.10;20.05;;;;;;;4.25;58.96;102797.91;5032473;28;20041;-69
2022/03/20 04:03:35;;;;;;;28.67;19.77;;;;;;;4.26;59.45;102791.56;5034651;28;20492;-69
2022/03/20 04:06:04;;;;;;;30.25;19.65;;;;;;;4.26;59.16;102795.09;5034163;28;20098;-69
2022/03/20 04:08:29;;;;;;;26.85;19.05;;;;;;;4.25;59.18;102782.66;5034532;28;20103;-68
2022/03/20 04:10:55;;;;;;;28.17;19.48;;;;;;;4.16;59.53;102782.63;5034001;28;20069;-68
2022/03/20 04:13:20;;;;;;;30.75;20.73;;;;;;;4.05;59.71;102784.41;5034119;28;20040;-68
2022/03/20 04:15:46;;;;;;;30.10;19.67;;;;;;;3.97;60.17;102770.84;5034417;28;20614;-68
2022/03/20 04:18:12;;;;;;;30.23;20.13;;;;;;;4.01;59.82;102766.91;5033781;28;20064;-69
2022/03/20 04:20:37;;;;;;;32.28;21.13;;;;;;;3.97;59.60;102762.81;5034314;28;20069;-68
2022/03/20 04:25:47;;;;;;;26.63;19.55;;;;;;;3.87;60.33;102759.25;5034336;28;20392;-68
2022/03/20 04:28:12;;;;;;;31.08;20.80;;;;;;;3.86;60.13;102753.03;5033450;28;20025;-68
2022/03/20 04:30:37;;;;;;;30.70;20.98;;;;;;;3.85;60.49;102743.31;5033362;28;20108;-68
2022/03/20 04:33:04;;;;;;;28.02;20.17;;;;;;;3.83;60.80;102739.06;5033763;28;20068;-68
2022/03/20 04:35:29;;;;;;;29.27;20.85;;;;;;;3.84;60.55;102732.72;5034042;28;20040;-69
2022/03/20 04:37:56;;;;;;;30.17;20.70;;;;;;;3.85;60.71;102729.91;5033692;28;20029;-68
2022/03/20 04:40:22;;;;;;;32.20;20.58;;;;;;;3.80;60.70;102731.28;5033866;28;20389;-68
2022/03/20 04:42:49;;;;;;;29.58;20.98;;;;;;;3.78;60.85;102738.63;5033810;28;20059;-68
2022/03/20 04:45:14;;;;;;;32.17;21.15;;;;;;;3.70;60.02;102731.25;5033606;28;20029;-69
2022/03/20 04:58:36;;;;;;;30.45;21.52;;;;;;;3.64;60.76;102715.69;5033372;28;20408;-68
2022/03/20 05:01:01;;;;;;;33.65;20.90;;;;;;;3.58;60.99;102716.25;5030496;28;20034;-68
2022/03/20 05:03:27;;;;;;;31.30;21.38;;;;;;;3.55;61.48;102707.50;5033185;28;20036;-68
2022/03/20 05:05:53;;;;;;;29.60;21.25;;;;;;;3.48;60.96;102708.16;5015370;28;20040;-68
2022/03/20 05:08:19;;;;;;;31.58;21.15;;;;;;;3.47;61.02;102699.31;5032497;28;20408;-68
2022/03/20 05:13:28;;;;;;;29.75;20.98;;;;;;;3.53;61.47;102703.25;5032981;28;20132;-68
2022/03/20 05:15:57;;;;;;;31.98;21.25;;;;;;;3.47;61.15;102698.44;5033337;28;20449;-68
2022/03/20 05:18:23;;;;;;;32.13;20.60;;;;;;;3.48;61.55;102694.78;5033359;28;20411;-68
2022/03/20 05:20:49;;;;;;;33.25;22.17;;;;;;;3.46;60.94;102696.75;5032645;28;20041;-68
2022/03/20 05:23:15;;;;;;;33.10;22.45;;;;;;;3.41;61.61;102691.78;5032682;28;20037;-68
2022/03/20 05:25:40;;;;;;;33.47;21.88;;;;;;;3.41;61.17;102693.59;5032883;28;20029;-68
2022/03/20 05:28:05;;;;;;;33.70;22.27;;;;;;;3.43;61.74;102692.50;5032705;28;20046;-69
2022/03/20 05:30:31;;;;;;;32.13;21.45;;;;;;;3.36;61.30;102683.31;5032845;28;20029;-68
2022/03/20 05:32:57;;;;;;;29.25;21.33;;;;;;;3.37;61.53;102685.00;5032897;28;20056;-68
2022/03/20 05:35:23;;;;;;;31.25;20.98;;;;;;;3.37;61.00;102693.88;5032623;28;20037;-68
2022/03/20 05:37:48;;;;;;;29.98;21.10;;;;;;;3.41;61.53;102682.91;5032660;28;20030;-68
2022/03/20 05:40:15;;;;;;;33.00;22.58;;;;;;;3.36;61.53;102685.97;5032635;28;20392;-68
2022/03/20 05:42:41;;;;;;;29.23;21.17;;;;;;;3.36;60.90;102676.13;5032950;28;20032;-68
2022/03/20 05:45:10;;;;;;;31.70;21.23;;;;;;;3.35;61.55;102666.41;5032482;28;20060;-68
2022/03/20 05:47:36;;;;;;;32.92;21.17;;;;;;;3.32;61.02;102666.69;5032108;28;20408;-69
2022/03/20 05:50:03;;;;;;;30.95;21.05;;;;;;;3.30;60.79;102657.06;5032285;28;20026;-68
2022/03/20 05:52:30;;;;;;;29.92;21.08;;;;;;;3.32;61.28;102653.28;5015091;28;20088;-68
2022/03/20 05:54:57;;;;;;;29.60;20.98;;;;;;;3.35;60.85;102650.34;5031050;28;20033;-68
2022/03/20 06:00:06;;;;;;;32.25;21.50;;;;;;;3.31;60.15;102661.47;5032074;28;20091;-68
2022/03/20 06:02:32;;;;;;;28.70;20.65;;;;;;;3.39;60.20;102666.16;5030222;28;20033;-68
2022/03/20 06:04:57;;;;;;;30.73;20.65;;;;;;;3.40;60.08;102657.97;5032143;28;20108;-68
2022/03/20 06:07:22;;;;;;;30.42;20.42;;;;;;;3.41;60.24;102659.66;5032471;28;20030;-69
2022/03/20 06:09:47;;;;;;;29.73;20.42;;;;;;;3.40;59.89;102649.09;5032450;28;20025;-68
2022/03/20 06:12:13;;;;;;;29.98;21.50;;;;;;;3.45;59.65;102653.06;5013875;28;20099;-68
2022/03/20 06:14:38;;;;;;;29.88;20.50;;;;;;;3.44;59.82;102655.88;5032325;28;20040;-68
2022/03/20 06:17:05;;;;;;;30.98;21.30;;;;;;;3.48;59.43;102647.44;5031917;28;20026;-69
2022/03/20 06:19:31;;;;;;;29.42;20.92;;;;;;;3.49;59.92;102651.00;5032177;28;20071;-68
2022/03/20 06:21:56;;;;;;;30.67;20.67;;;;;;;3.51;59.10;102651.69;5032318;28;20033;-68
2022/03/20 06:24:21;;;;;;;33.45;21.02;;;;;;;3.53;58.97;102645.22;5030989;28;20204;-68
2022/03/20 06:26:47;;;;;;;28.98;20.08;;;;;;;3.54;58.98;102651.41;5032165;28;20040;-68
2022/03/20 06:29:12;;;;;;;30.15;20.40;;;;;;;3.62;58.92;102653.41;5031925;28;20373;-68
2022/03/20 06:31:38;;;;;;;28.83;19.85;;;;;;;3.64;58.46;102652.31;5030521;28;20036;-68
2022/03/20 06:34:04;;;;;;;30.08;19.95;;;;;;;3.66;57.80;102653.00;5031906;28;20036;-68
2022/03/20 06:36:30;;;;;;;29.88;20.45;;;;;;;3.67;57.31;102656.56;5031879;28;20041;-68
2022/03/20 06:38:55;;;;;;;31.02;20.55;;;;;;;3.65;58.31;102647.81;5031885;28;20037;-68
2022/03/20 06:41:21;;;;;;;32.08;19.67;;;;;;;3.69;57.53;102647.38;5030843;28;20049;-68
2022/03/20 06:43:46;;;;;;;28.63;20.35;;;;;;;3.75;57.50;102640.66;5032615;28;20112;-68
2022/03/20 06:46:12;;;;;;;31.15;19.88;;;;;;;3.80;56.97;102634.88;5031629;28;20036;-68
2022/03/20 06:48:37;;;;;;;33.60;20.35;;;;;;;3.83;56.93;102627.41;5030559;28;20053;-69
2022/03/20 06:51:04;;;;;;;33.08;19.48;;;;;;;3.85;56.71;102622.78;5031359;28;20030;-68
2022/03/20 06:53:29;;;;;;;29.02;19.63;;;;;;;3.88;56.89;102624.31;5031987;28;20033;-68
2022/03/20 06:55:55;;;;;;;30.05;18.92;;;;;;;4.00;56.76;102630.41;5032122;28;20042;-68
2022/03/20 06:58:22;;;;;;;28.80;18.67;;;;;;;4.00;56.08;102617.03;5013810;28;20041;-68
2022/03/20 07:00:48;;;;;;;31.55;19.17;;;;;;;4.07;56.19;102621.69;5029838;28;20107;-68
2022/03/20 07:03:13;;;;;;;29.52;20.08;;;;;;;4.13;55.57;102614.09;5031122;28;20484;-68
2022/03/20 07:05:39;;;;;;;26.73;18.52;;;;;;;4.16;55.68;102625.38;5031921;28;20025;-68
2022/03/20 07:08:05;;;;;;;29.27;18.88;;;;;;;4.19;56.14;102616.22;5031506;28;20040;-68
2022/03/20 07:10:31;;;;;;;29.30;19.52;;;;;;;4.26;55.61;102615.53;5031904;28;20116;-68
2022/03/20 07:15:42;;;;;;;28.30;19.45;;;;;;;4.28;54.91;102604.66;5031593;28;20056;-69
2022/03/20 07:18:09;;;;;;;25.05;18.15;;;;;;;4.35;55.16;102602.25;5031805;28;20034;-69
2022/03/20 07:20:41;;;;;;;30.27;19.02;;;;;;;4.31;54.47;102587.47;5031545;28;20096;-68
2022/03/20 07:23:09;;;;;;;30.70;18.75;;;;;;;4.33;54.45;102591.69;5031585;28;20038;-69
2022/03/20 07:31:06;;;;;;;29.23;18.38;;;;;;;4.47;54.06;102570.78;5034919;28;20039;-68
2022/03/20 07:33:32;;;;;;;33.15;19.63;;;;;;;4.47;53.51;102568.13;5035061;28;20112;-68
2022/03/20 07:35:58;;;;;;;27.67;18.38;;;;;;;4.51;53.19;102580.25;5035009;28;20375;-69
2022/03/20 07:38:23;;;;;;;27.50;18.42;;;;;;;4.56;52.43;102577.97;5033377;28;20366;-68
2022/03/20 07:40:49;;;;;;;30.88;18.48;;;;;;;4.53;52.88;102573.78;5034656;28;20040;-68
2022/03/20 07:43:15;;;;;;;29.25;19.20;;;;;;;4.56;52.49;102575.31;5034773;28;20044;-68
2022/03/20 07:45:40;;;;;;;29.30;18.55;;;;;;;4.59;52.48;102583.09;5034850;28;20464;-69
2022/03/20 07:48:05;;;;;;;26.15;17.70;;;;;;;4.63;52.30;102579.09;5034873;28;20087;-69
2022/03/20 07:50:30;;;;;;;24.55;17.65;;;;;;;4.59;51.54;102575.88;5034690;28;20037;-68
2022/03/20 07:52:59;;;;;;;26.30;17.75;;;;;;;4.69;51.41;102578.53;5034712;28;20056;-68
2022/03/20 07:55:27;;;;;;;26.42;17.77;;;;;;;4.69;51.15;102580.38;5034613;28;20037;-69
2022/03/20 07:57:53;;;;;;;26.35;18.13;;;;;;;4.70;51.43;102590.97;5034410;28;20056;-69
2022/03/20 08:00:19;;;;;;;28.27;18.27;;;;;;;4.68;50.48;102590.28;5016944;28;20041;-68
2022/03/20 08:02:45;;;;;;;29.67;18.02;;;;;;;4.70;51.20;102585.59;5032789;28;20042;-69
2022/03/20 08:05:10;;;;;;;28.60;17.55;;;;;;;4.75;50.46;102572.59;5034181;28;20034;-68
2022/03/20 08:07:37;;;;;;;30.40;18.70;;;;;;;4.76;50.82;102579.66;5016861;28;20044;-68
2022/03/20 08:10:07;;;;;;;27.05;17.77;;;;;;;4.81;51.39;102570.34;5034266;28;20049;-69
2022/03/20 08:12:32;;;;;;;26.27;17.48;;;;;;;4.80;50.15;102564.13;5034370;28;20060;-68
2022/03/20 08:14:58;;;;;;;27.63;17.38;;;;;;;4.84;51.06;102575.41;5034326;28;20468;-69
2022/03/20 08:17:24;;;;;;;27.92;17.58;;;;;;;4.80;49.82;102574.84;5034143;28;20408;-69
2022/03/20 08:19:49;;;;;;;28.25;18.48;;;;;;;4.81;50.00;102579.22;5033974;28;20025;-69
2022/03/20 08:22:14;;;;;;;28.55;18.75;;;;;;;4.86;50.33;102578.78;5033792;28;20056;-69
2022/03/20 08:24:41;;;;;;;29.48;18.02;;;;;;;4.85;49.85;102567.22;5016095;28;20033;-69
2022/03/20 08:27:07;;;;;;;27.70;17.95;;;;;;;4.89;50.49;102570.44;5015970;28;20121;-68
2022/03/20 08:29:32;;;;;;;28.95;18.27;;;;;;;4.92;50.39;102562.97;5034062;28;20120;-68
2022/03/20 08:31:57;;;;;;;28.20;17.63;;;;;;;4.96;51.00;102558.16;5034010;28;20030;-68
2022/03/20 08:34:23;;;;;;;27.33;17.58;;;;;;;5.00;50.00;102548.84;5033407;28;20389;-68
2022/03/20 08:36:48;;;;;;;26.35;18.10;;;;;;;5.04;50.38;102552.91;5033909;28;20064;-69
2022/03/20 08:39:13;;;;;;;28.45;18.13;;;;;;;5.04;49.48;102552.91;5033734;28;20025;-69
2022/03/20 08:41:39;;;;;;;30.90;18.85;;;;;;;5.03;49.72;102551.22;5015737;28;20041;-69
2022/03/20 08:44:05;;;;;;;29.70;18.40;;;;;;;5.05;50.30;102551.91;5033565;28;20049;-69
2022/03/20 08:46:31;;;;;;;27.90;18.23;;;;;;;5.09;51.67;102552.47;5015945;28;20047;-69
2022/03/20 08:48:57;;;;;;;28.45;18.23;;;;;;;5.12;50.49;102555.69;5033344;28;20053;-69
2022/03/20 08:51:23;;;;;;;27.77;18.52;;;;;;;5.15;50.77;102552.72;5032755;28;20021;-70
2022/03/20 08:53:48;;;;;;;27.95;18.05;;;;;;;5.18;50.89;102553.41;5033565;28;20442;-72
2022/03/20 08:56:14;;;;;;;29.88;18.88;;;;;;;5.15;49.63;102552.72;5033461;28;20472;-70
2022/03/20 08:58:40;;;;;;;28.23;18.65;;;;;;;5.20;50.63;102557.66;5033841;28;20037;-70
2022/03/20 09:01:06;;;;;;;28.80;18.23;;;;;;;5.21;49.30;102547.75;5030681;28;20025;-70
2022/03/20 09:03:31;;;;;;;26.15;17.35;;;;;;;5.23;49.66;102548.47;5033453;28;20033;-70
2022/03/20 09:05:57;;;;;;;26.90;18.05;;;;;;;5.22;49.31;102558.34;5015690;28;20037;-71
2022/03/20 09:08:22;;;;;;;26.77;18.77;;;;;;;5.22;49.32;102547.59;5032174;28;20384;-72
2022/03/20 09:10:51;;;;;;;28.52;17.90;;;;;;;5.20;49.16;102543.41;5020460;28;20132;-70
2022/03/20 09:13:17;;;;;;;28.10;18.63;;;;;;;5.21;49.65;102534.31;5015514;28;20039;-70
2022/03/20 09:15:43;;;;;;;30.63;19.13;;;;;;;5.21;49.53;102523.59;5033459;28;20381;-73
2022/03/20 09:20:52;;;;;;;26.45;18.40;;;;;;;5.44;49.70;102527.59;5033222;28;20479;-73
2022/03/20 09:23:18;;;;;;;27.38;17.88;;;;;;;5.59;49.08;102521.72;5015486;28;20025;-71
2022/03/20 09:25:43;;;;;;;27.27;18.15;;;;;;;5.75;49.07;102524.59;5031867;28;20041;-71
2022/03/20 09:28:10;;;;;;;26.58;18.83;;;;;;;5.87;48.87;102517.13;5032052;28;20141;-70
2022/03/20 09:30:38;;;;;;;27.13;18.75;;;;;;;6.00;48.77;102508.72;5032874;28;20124;-71
2022/03/20 09:33:05;;;;;;;27.63;18.90;;;;;;;6.09;48.24;102501.59;5032313;28;20056;-71
2022/03/20 09:35:34;;;;;;;27.42;18.77;;;;;;;6.20;48.70;102502.19;5033213;28;20037;-71
2022/03/20 09:38:00;;;;;;;29.08;18.98;;;;;;;6.20;47.34;102502.19;5032931;28;20033;-71
2022/03/20 09:40:26;;;;;;;28.02;18.58;;;;;;;6.20;47.31;102498.66;5031509;28;20033;-71
2022/03/20 09:42:51;;;;;;;27.70;18.70;;;;;;;6.15;47.62;102488.38;4998637;28;20045;-70
2022/03/20 09:45:19;;;;;;;27.33;19.10;;;;;;;6.17;47.95;102472.91;5032500;28;20390;-70
2022/03/20 09:47:44;;;;;;;29.60;19.02;;;;;;;6.29;48.02;102486.13;5032031;28;20524;-71
2022/03/20 09:50:12;;;;;;;30.52;19.05;;;;;;;6.33;47.36;102480.28;5032684;28;20117;-71
2022/03/20 09:52:39;;;;;;;31.17;19.60;;;;;;;6.41;47.63;102476.78;5014966;28;20041;-71
2022/03/20 09:55:06;;;;;;;27.63;18.58;;;;;;;6.47;47.23;102470.78;5032323;28;20041;-71
2022/03/20 09:57:32;;;;;;;28.08;19.45;;;;;;;6.55;47.55;102470.84;5014542;28;20128;-71
2022/03/20 10:00:01;;;;;;;28.25;18.92;;;;;;;6.62;47.26;102481.81;5032715;28;20521;-71
2022/03/20 10:02:28;;;;;;;29.00;20.40;;;;;;;6.69;47.57;102477.50;5030157;28;20084;-72
2022/03/20 10:05:04;;;;;;;32.67;20.15;;;;;;;6.73;47.22;102486.94;5032684;28;20112;-71
2022/03/20 10:07:33;;;;;;;30.05;20.10;;;;;;;6.75;46.89;102486.78;5031790;28;20373;-71
2022/03/20 10:10:11;;;;;;;28.85;19.98;;;;;;;6.78;47.47;102481.06;5032702;28;20174;-72
2022/03/20 10:12:41;;;;;;;31.17;20.83;;;;;;;6.76;47.56;102485.75;5032401;28;20385;-71
2022/03/20 10:15:09;;;;;;;29.45;20.80;;;;;;;6.82;47.27;102487.81;5032567;28;20453;-72
2022/03/20 10:17:36;;;;;;;29.25;20.40;;;;;;;6.85;47.88;102489.34;5032068;28;20047;-72
2022/03/20 10:20:16;;;;;;;31.50;21.00;;;;;;;6.89;47.23;102483.47;5032554;28;20098;-71
2022/03/20 10:22:42;;;;;;;32.85;21.17;;;;;;;6.92;47.14;102482.31;5013822;28;20038;-71
2022/03/20 10:25:11;;;;;;;31.17;22.00;;;;;;;6.91;47.32;102478.78;5031677;28;20128;-71
2022/03/20 10:27:37;;;;;;;31.30;21.85;;;;;;;6.95;47.05;102482.00;5031412;28;20037;-72
2022/03/20 10:30:08;;;;;;;32.80;23.30;;;;;;;6.96;47.78;102481.00;5032288;28;20460;-71
2022/03/20 10:32:35;;;;;;;34.10;23.40;;;;;;;6.98;47.81;102467.38;5030152;28;20080;-70
2022/03/20 10:35:04;;;;;;;33.40;23.35;;;;;;;7.04;47.75;102472.94;5031704;28;20034;-72
2022/03/20 10:37:48;;;;;;;33.40;23.95;;;;;;;7.11;49.24;102475.84;5030883;28;20017;-70
2022/03/20 10:40:16;;;;;;;34.08;24.73;;;;;;;7.13;50.93;102473.00;5033380;28;20447;-69
2022/03/20 10:43:06;;;;;;;34.42;24.08;;;;;;;7.22;51.92;102482.78;5030728;28;20384;-71
2022/03/20 10:45:32;;;;;;;35.88;23.90;;;;;;;7.24;52.67;102486.16;5029033;28;20381;-71
2022/03/20 10:48:01;;;;;;;36.88;24.38;;;;;;;7.22;53.45;102474.72;5031770;28;20050;-70
2022/03/20 10:50:26;;;;;;;33.05;23.33;;;;;;;7.28;53.53;102479.44;5000279;28;20037;-70
2022/03/20 10:53:06;;;;;;;35.35;25.35;;;;;;;7.26;53.33;102482.31;5031693;28;20052;-70
2022/03/20 10:55:32;;;;;;;32.35;23.70;;;;;;;7.24;53.56;102484.28;5031485;28;20022;-71
2022/03/20 10:58:17;;;;;;;35.67;25.02;;;;;;;7.26;53.83;102490.38;5031504;28;20044;-70
2022/03/20 11:00:46;;;;;;;34.75;25.05;;;;;;;7.27;55.06;102489.34;5033201;28;20063;-73
2022/03/20 11:03:15;;;;;;;34.15;25.65;;;;;;;7.20;55.35;102491.03;5028367;28;20033;-71
2022/03/20 11:05:40;;;;;;;37.40;24.80;;;;;;;7.21;56.31;102497.25;5035331;28;20025;-71
2022/03/20 11:08:05;;;;;;;36.78;26.27;;;;;;;7.22;56.81;102498.94;5024961;28;20052;-70
2022/03/20 11:10:31;;;;;;;35.45;25.85;;;;;;;7.21;57.42;102494.56;5034668;28;20060;-71
2022/03/20 11:12:57;;;;;;;37.22;26.23;;;;;;;7.09;57.86;102502.06;5034855;28;20037;-73
2022/03/20 11:15:22;;;;;;;34.38;25.45;;;;;;;6.96;58.64;102498.97;5035095;28;20029;-70
2022/03/20 11:17:49;;;;;;;34.72;26.23;;;;;;;6.95;58.97;102497.31;5029141;28;20477;-70
2022/03/20 11:20:17;;;;;;;36.25;26.38;;;;;;;6.91;58.56;102497.63;5031206;28;20231;-71
2022/03/20 11:22:46;;;;;;;37.88;26.30;;;;;;;6.92;59.26;102511.94;5031916;28;20094;-70
2022/03/20 11:25:11;;;;;;;34.83;26.20;;;;;;;6.95;59.63;102503.53;5033062;28;20485;-69
2022/03/20 11:27:42;;;;;;;36.47;26.40;;;;;;;6.92;59.15;102493.91;5034354;28;20064;-69
2022/03/20 11:30:07;;;;;;;37.97;26.42;;;;;;;6.94;59.56;102495.63;5034764;28;20448;-70
2022/03/20 11:32:34;;;;;;;35.35;26.67;;;;;;;6.96;59.58;102502.53;5039007;28;20052;-69
2022/03/20 11:35:00;;;;;;;35.88;26.85;;;;;;;6.97;59.08;102501.50;5034313;28;20147;-70
2022/03/20 11:37:43;;;;;;;37.92;26.75;;;;;;;7.05;59.36;102500.69;5033400;28;20041;-69
2022/03/20 11:40:17;;;;;;;34.55;26.05;;;;;;;7.01;59.79;102494.81;5034450;28;20064;-69
2022/03/20 11:42:43;;;;;;;34.95;25.02;;;;;;;7.04;59.18;102490.97;5017438;28;20033;-69
2022/03/20 11:45:14;;;;;;;33.28;25.38;;;;;;;7.04;60.08;102502.56;5034403;28;20112;-69
2022/03/20 11:47:41;;;;;;;;;;;;;;;7.16;57.93;102508.50;5032247;28;20073;-70
2022/03/20 11:50:25;;;;;;;34.70;25.08;;;;;;;7.17;59.60;102507.50;5051003;28;19917;-68
2022/03/20 11:52:55;;;;;;;35.42;25.95;;;;;;;7.18;59.79;102502.97;5026556;28;20026;-72
2022/03/20 11:55:36;;;;;;;33.67;24.95;;;;;;;7.22;58.83;102498.94;5032822;28;20120;-71